createdAt,value
2019-01-19T06:55:42.026Z,20.30
2019-01-19T06:58:13.421Z,14.00
2019-01-19T07:00:44.080Z,11.15
2019-01-19T07:03:14.705Z,18.87
2019-01-19T07:05:45.408Z,13.70
2019-01-19T07:08:16.013Z,15.80
2019-01-19T07:10:46.563Z,17.25
2019-01-19T07:13:17.172Z,22.17
2019-01-19T07:15:47.939Z,17.98
2019-01-19T07:18:18.562Z,17.70
2019-01-19T07:20:49.399Z,16.10
2019-01-19T07:23:20.013Z,13.78
2019-01-19T07:25:50.625Z,14.60
2019-01-19T07:28:21.230Z,11.97
2019-01-19T07:30:51.872Z,8.83
2019-01-19T07:33:22.454Z,10.05
2019-01-19T07:35:53.112Z,16.93
2019-01-19T07:38:24.106Z,15.13
2019-01-19T07:40:54.745Z,15.53
2019-01-19T07:43:25.716Z,22.55
2019-01-19T07:45:56.486Z,16.90
2019-01-19T07:49:13.987Z,18.45
2019-01-19T07:51:35.891Z,22.07
2019-01-19T07:54:08.499Z,21.60
2019-01-19T07:56:39.220Z,19.95
2019-01-19T07:59:10.244Z,17.17
2019-01-19T08:02:02.665Z,17.73
2019-01-19T08:04:30.839Z,22.33
2019-01-19T08:07:01.563Z,21.10
2019-01-19T08:09:32.203Z,26.20
2019-01-19T08:12:02.910Z,20.95
2019-01-19T08:14:33.489Z,20.70
2019-01-19T08:17:03.977Z,21.60
2019-01-19T08:19:34.659Z,24.10
2019-01-19T08:22:05.209Z,28.45
2019-01-19T08:24:36.596Z,23.05
2019-01-19T08:27:10.616Z,23.07
2019-01-19T08:29:41.657Z,28.90
2019-01-19T08:32:17.202Z,25.75
2019-01-19T08:34:49.540Z,22.77
2019-01-19T08:37:24.503Z,20.57
2019-01-19T08:39:57.662Z,20.77
2019-01-19T08:42:30.090Z,21.82
2019-01-19T08:45:00.906Z,21.55
2019-01-19T08:47:32.108Z,22.20
2019-01-19T08:50:28.288Z,21.30
2019-01-19T08:52:59.726Z,20.20
2019-01-19T08:55:30.369Z,19.20
2019-01-19T08:58:00.984Z,25.32
2019-01-19T09:00:31.833Z,22.52
2019-01-19T09:03:02.409Z,22.75
2019-01-19T09:05:32.998Z,22.93
2019-01-19T09:08:03.579Z,26.20
2019-01-19T09:10:34.914Z,23.52
2019-01-19T09:13:24.565Z,25.62
2019-01-19T09:16:01.790Z,31.05
2019-01-19T09:18:32.456Z,22.90
2019-01-19T09:21:03.014Z,29.65
2019-01-19T09:23:41.461Z,26.45
2019-01-19T09:26:12.009Z,26.50
2019-01-19T09:28:43.769Z,27.58
2019-01-19T09:31:14.430Z,30.10
2019-01-19T09:33:45.114Z,27.77
2019-01-19T09:36:17.891Z,30.97
2019-01-19T09:38:48.590Z,30.13
2019-01-19T09:41:19.152Z,32.00
2019-01-19T09:43:50.870Z,29.87
2019-01-19T09:46:21.908Z,33.95
2019-01-19T09:48:52.850Z,42.60
2019-01-19T09:51:23.780Z,36.23
2019-01-19T09:53:54.651Z,31.85
2019-01-19T09:56:25.255Z,31.57
2019-01-19T09:58:56.066Z,35.90
2019-01-19T10:01:27.024Z,37.88
2019-01-19T10:03:57.895Z,32.25
2019-01-19T10:06:28.946Z,29.72
2019-01-19T10:08:59.953Z,32.75
2019-01-19T10:11:41.896Z,30.63
2019-01-19T10:14:12.974Z,35.90
2019-01-19T10:16:43.809Z,37.97
2019-01-19T10:19:14.579Z,34.80
2019-01-19T10:21:45.226Z,39.92
2019-01-19T10:24:21.151Z,34.70
2019-01-19T10:26:52.296Z,35.48
2019-01-19T10:29:23.611Z,35.73
2019-01-19T10:31:54.256Z,41.03
2019-01-19T10:34:24.868Z,42.93
2019-01-19T10:36:55.438Z,43.23
2019-01-19T10:39:25.963Z,46.20
2019-01-19T10:41:56.575Z,40.65
2019-01-19T10:44:52.272Z,39.00
2019-01-19T10:47:27.650Z,39.78
2019-01-19T10:50:00.587Z,42.35
2019-01-19T10:52:31.261Z,44.95
2019-01-19T10:55:01.841Z,38.65
2019-01-19T10:57:32.568Z,44.10
2019-01-19T11:00:03.147Z,36.20
2019-01-19T11:02:33.989Z,35.75
2019-01-19T11:05:05.237Z,40.05
2019-01-19T11:07:36.484Z,42.03
2019-01-19T11:10:19.290Z,39.08
2019-01-19T11:12:50.001Z,37.98
2019-01-19T11:15:20.642Z,44.85
2019-01-19T11:17:51.289Z,35.40
2019-01-19T11:20:27.912Z,33.90
2019-01-19T11:22:59.924Z,34.10
2019-01-19T11:25:30.623Z,41.58
2019-01-19T11:28:01.396Z,37.10
2019-01-19T11:30:33.049Z,34.53
2019-01-19T11:33:03.697Z,32.80
2019-01-19T11:35:34.457Z,37.98
2019-01-19T11:38:11.662Z,38.43
2019-01-19T11:40:39.614Z,40.50
2019-01-19T11:43:11.724Z,43.17
2019-01-19T11:45:42.458Z,39.35
2019-01-19T11:48:13.053Z,41.73
2019-01-19T11:50:43.613Z,40.45
2019-01-19T11:53:14.136Z,37.67
2019-01-19T11:55:46.039Z,36.38
2019-01-19T11:58:16.584Z,34.55
2019-01-19T12:00:47.058Z,35.55
2019-01-19T12:03:17.644Z,41.02
2019-01-19T12:05:48.250Z,38.17
2019-01-19T12:08:19.624Z,39.37
2019-01-19T12:10:50.577Z,36.95
2019-01-19T12:13:21.155Z,38.23
2019-01-19T12:15:51.838Z,34.03
2019-01-19T12:18:25.405Z,45.12
2019-01-19T12:20:55.944Z,43.65
2019-01-19T12:23:26.510Z,40.52
2019-01-19T12:25:58.905Z,38.90
2019-01-19T12:28:29.470Z,40.23
2019-01-19T12:31:00.161Z,36.65
2019-01-19T12:33:31.193Z,31.17
2019-01-19T12:36:01.764Z,34.03
2019-01-19T12:38:32.362Z,34.85
2019-01-19T12:41:03.001Z,31.48
2019-01-19T12:43:33.582Z,34.70
2019-01-19T12:46:10.336Z,46.50
2019-01-19T12:48:40.991Z,35.85
2019-01-19T12:51:14.163Z,33.67
2019-01-19T12:53:44.775Z,32.13
2019-01-19T12:56:15.360Z,41.75
2019-01-19T12:58:46.894Z,29.67
2019-01-19T13:01:17.539Z,32.33
2019-01-19T13:03:48.249Z,31.77
2019-01-19T13:06:52.051Z,27.10
2019-01-19T13:09:37.408Z,29.45
2019-01-19T13:12:19.478Z,28.32
2019-01-19T13:15:17.269Z,28.57
2019-01-19T13:18:41.648Z,35.03
2019-01-19T13:22:14.871Z,31.73
2019-01-19T13:25:42.339Z,34.25
2019-01-19T13:29:04.809Z,27.55
2019-01-19T13:32:32.326Z,25.40
2019-01-19T13:35:56.060Z,28.27
2019-01-19T13:39:15.208Z,34.73
2019-01-19T13:42:36.844Z,29.45
2019-01-19T13:46:23.292Z,32.20
2019-01-19T13:50:00.456Z,29.10
2019-01-19T13:53:37.281Z,31.55
2019-01-19T13:57:01.298Z,28.67
2019-01-19T14:00:32.662Z,32.42
2019-01-19T14:03:58.695Z,31.15
2019-01-19T14:07:16.943Z,27.27
2019-01-19T14:10:31.157Z,27.67
2019-01-19T14:13:17.235Z,28.00
2019-01-19T14:16:27.742Z,28.25
2019-01-19T14:19:59.751Z,30.10
2019-01-19T14:23:47.617Z,37.10
2019-01-19T14:27:12.840Z,29.00
2019-01-19T14:30:50.846Z,27.67
2019-01-19T14:33:50.666Z,26.77
2019-01-19T14:37:27.763Z,29.70
2019-01-19T14:40:44.886Z,25.43
2019-01-19T14:43:59.023Z,32.05
2019-01-19T14:47:36.393Z,26.48
2019-01-19T14:51:08.525Z,24.43
2019-01-19T14:54:20.938Z,18.20
2019-01-19T14:57:28.876Z,26.87
2019-01-19T15:01:12.845Z,21.12
2019-01-19T15:04:03.884Z,28.12
2019-01-19T15:07:08.308Z,23.05
2019-01-19T15:10:12.354Z,19.83
2019-01-19T15:13:55.258Z,22.25
2019-01-19T15:17:40.545Z,27.33
2019-01-19T15:21:20.297Z,18.30
2019-01-19T15:24:43.948Z,20.68
2019-01-19T15:28:20.898Z,24.80
2019-01-19T15:31:57.098Z,29.10
2019-01-19T15:49:21.706Z,21.37
2019-01-19T15:52:41.486Z,20.90
2019-01-19T16:01:56.278Z,19.85
2019-01-19T16:10:59.710Z,25.50
2019-01-19T16:14:39.423Z,24.90
2019-01-19T16:18:03.024Z,18.67
2019-01-19T16:22:00.797Z,21.62
2019-01-19T16:25:32.071Z,18.37
2019-01-19T16:29:11.527Z,22.98
2019-01-19T16:32:32.715Z,26.90
2019-01-19T16:35:47.323Z,25.80
2019-01-19T16:39:26.006Z,22.80
2019-01-19T16:43:08.119Z,14.87
2019-01-19T16:46:20.532Z,16.17
2019-01-19T16:49:33.774Z,15.98
2019-01-19T16:53:12.545Z,23.20
2019-01-19T16:56:33.092Z,21.15
2019-01-19T17:00:16.598Z,19.07
2019-01-19T17:03:50.650Z,19.70
2019-01-19T17:07:10.961Z,21.93
2019-01-19T17:10:09.566Z,17.42
2019-01-19T17:13:40.107Z,23.62
2019-01-19T17:17:04.054Z,20.13
2019-01-19T17:20:32.471Z,24.60
2019-01-19T17:24:11.404Z,20.50
2019-01-19T17:27:56.370Z,26.45
2019-01-19T17:31:06.445Z,22.22
2019-01-19T17:34:38.145Z,23.80
2019-01-19T17:37:35.379Z,21.40
2019-01-19T17:41:26.739Z,21.48
2019-01-19T17:44:55.997Z,21.93
2019-01-19T17:48:08.328Z,23.02
2019-01-19T17:51:48.561Z,25.40
2019-01-19T17:55:12.720Z,20.17
2019-01-19T17:58:48.283Z,22.45
2019-01-19T18:02:41.802Z,19.92
2019-01-19T18:06:21.252Z,21.30
2019-01-19T18:09:51.932Z,22.30
2019-01-19T18:13:09.780Z,22.00
2019-01-19T18:16:37.768Z,22.75
2019-01-19T18:19:57.288Z,21.57
2019-01-19T18:23:08.742Z,24.37
2019-01-19T18:26:36.175Z,21.68
2019-01-19T18:29:50.030Z,25.43
2019-01-19T18:33:02.402Z,27.67
2019-01-19T18:36:30.681Z,24.15
2019-01-19T18:40:18.408Z,24.25
2019-01-19T18:43:36.527Z,31.97
2019-01-19T18:46:52.733Z,38.88
2019-01-19T18:50:36.481Z,30.63
2019-01-19T18:54:12.932Z,31.57
2019-01-19T18:57:48.058Z,25.68
2019-01-19T19:01:02.403Z,22.52
2019-01-19T19:04:18.793Z,26.67
2019-01-19T19:07:43.385Z,29.52
2019-01-19T19:11:31.520Z,34.40
2019-01-19T19:14:37.443Z,34.03
2019-01-19T19:18:09.959Z,25.17
2019-01-19T19:21:30.531Z,29.82
2019-01-19T19:53:50.818Z,40.70
2019-01-19T19:56:20.112Z,39.80
2019-01-19T19:59:10.937Z,40.00
2019-01-19T20:01:42.761Z,30.23
2019-01-19T20:04:13.472Z,36.77
2019-01-19T20:06:44.257Z,30.17
2019-01-19T20:09:15.084Z,32.28
2019-01-19T20:11:45.751Z,45.50
2019-01-19T20:14:16.500Z,31.00
2019-01-19T20:16:47.156Z,31.05
2019-01-19T20:19:18.504Z,37.13
2019-01-19T20:24:45.614Z,31.90
2019-01-19T20:27:19.392Z,32.05
2019-01-19T20:29:50.678Z,40.40
2019-01-19T20:32:23.290Z,33.70
2019-01-19T20:34:54.152Z,28.77
2019-01-19T20:37:24.971Z,33.28
2019-01-19T21:32:40.290Z,29.82
2019-01-19T21:35:10.932Z,29.35
2019-01-19T21:37:41.513Z,28.85
2019-01-19T21:40:12.782Z,24.02
2019-01-19T21:42:43.450Z,22.45
2019-01-19T21:45:18.027Z,32.95
2019-01-19T21:47:48.858Z,36.58
2019-01-19T21:50:19.410Z,35.03
2019-01-19T21:52:50.069Z,33.63
2019-01-19T21:55:20.875Z,29.55
2019-01-19T21:58:00.482Z,38.28
2019-01-19T22:00:31.391Z,28.20
2019-01-19T22:03:02.068Z,23.33
2019-01-19T22:05:33.045Z,31.30
2019-01-19T22:08:05.050Z,37.45
2019-01-19T22:10:36.603Z,28.53
2019-01-19T22:13:07.613Z,32.48
2019-01-19T22:15:38.467Z,36.00
2019-01-19T22:18:09.136Z,30.50
2019-01-19T22:20:48.977Z,40.20
2019-01-19T22:23:18.011Z,35.35
2019-01-19T22:25:48.720Z,35.23
2019-01-19T22:28:19.532Z,41.18
2019-01-19T22:30:50.170Z,38.40
2019-01-19T22:33:21.417Z,38.60
2019-01-19T22:35:52.190Z,48.00
2019-01-19T22:38:22.963Z,33.67
2019-01-19T22:40:53.939Z,37.28
2019-01-19T22:43:31.108Z,37.98
2019-01-19T22:46:01.853Z,48.58
2019-01-19T22:48:32.635Z,44.58
2019-01-19T22:51:03.392Z,48.65
2019-01-19T22:53:34.125Z,42.60
2019-01-19T22:56:04.898Z,39.57
2019-01-19T22:58:36.216Z,41.05
2019-01-19T23:01:39.339Z,35.35
2019-01-19T23:04:10.148Z,25.27
2019-01-19T23:06:41.016Z,35.05
2019-01-19T23:09:13.436Z,39.30
2019-01-19T23:11:44.150Z,31.80
2019-01-19T23:14:16.188Z,35.60
2019-01-19T23:16:46.885Z,35.47
2019-01-19T23:19:17.561Z,35.70
2019-01-19T23:21:49.502Z,37.15
2019-01-19T23:24:20.605Z,49.73
2019-01-19T23:26:52.169Z,47.27
2019-01-19T23:29:22.956Z,39.03
2019-01-19T23:31:53.709Z,46.10
2019-01-19T23:34:24.582Z,39.13
2019-01-19T23:36:55.395Z,35.08
2019-01-19T23:39:26.069Z,43.85
2019-01-19T23:41:56.810Z,40.00
2019-01-19T23:44:27.595Z,34.55
2019-01-19T23:46:58.340Z,43.02
2019-01-19T23:49:29.066Z,46.58
2019-01-19T23:51:59.787Z,40.20
2019-01-19T23:54:30.589Z,36.48
2019-01-19T23:57:01.364Z,33.33
2019-01-19T23:59:32.066Z,42.60
